SWA726 KPHX-KRNO
Flight info
| Callsign | SWA726 |
|---|---|
| Flight time | N/A |
| Altitude | 40000 |
| Route | ZEPER2 RRSTA DOVEE BTY KENNO SCOLA1 |
| Aircraft | B737/M-SADE2E3GIJ4RWZ/LB1D1 |
Departure
| Time | 2026-05-05 18:19 |
|---|---|
| Airport | Phoenix Sky Harbor International Airport (KPHX) |
Arrival
| Time | N/A |
|---|---|
| Airport | Reno Tahoe International Airport (KRNO) |
| Time | Latitude | Longitude | Altitude | Speed | Heading |
|---|---|---|---|---|---|
| 2026-05-05 17:35 | 33.43406 | -112.00142 | 1116 ft | 0 kts | 270° |
| 2026-05-05 18:07 | 33.43406 | -112.00134 | 1116 ft | 4 kts | 271° |
| 2026-05-05 18:07 | 33.43405 | -112.00102 | 1116 ft | 4 kts | 270° |
| 2026-05-05 18:07 | 33.43408 | -112.00070 | 1117 ft | 4 kts | 252° |
| 2026-05-05 18:08 | 33.43402 | -112.00070 | 1117 ft | 4 kts | 198° |
| 2026-05-05 18:08 | 33.43377 | -112.00063 | 1120 ft | 4 kts | 163° |
| 2026-05-05 18:08 | 33.43371 | -112.00061 | 1119 ft | 4 kts | 164° |
| 2026-05-05 18:08 | 33.43363 | -112.00059 | 1119 ft | 4 kts | 167° |
| 2026-05-05 18:09 | 33.43341 | -112.00057 | 1120 ft | 0 kts | 178° |
| 2026-05-05 18:14 | 33.43335 | -112.00056 | 1124 ft | 5 kts | 178° |
| 2026-05-05 18:14 | 33.43303 | -112.00055 | 1119 ft | 8 kts | 178° |
| 2026-05-05 18:14 | 33.43249 | -112.00053 | 1122 ft | 11 kts | 176° |
| 2026-05-05 18:15 | 33.43214 | -111.99970 | 1126 ft | 15 kts | 90° |
| 2026-05-05 18:15 | 33.43214 | -111.99819 | 1119 ft | 20 kts | 90° |
| 2026-05-05 18:15 | 33.43214 | -111.99704 | 1126 ft | 20 kts | 90° |
| 2026-05-05 18:15 | 33.43214 | -111.99536 | 1126 ft | 20 kts | 90° |
| 2026-05-05 18:16 | 33.43213 | -111.99397 | 1126 ft | 12 kts | 90° |
| 2026-05-05 18:16 | 33.43208 | -111.99363 | 1125 ft | 6 kts | 118° |
| 2026-05-05 18:16 | 33.43199 | -111.99354 | 1120 ft | 0 kts | 147° |
| 2026-05-05 18:18 | 33.43192 | -111.99349 | 1118 ft | 5 kts | 149° |
| 2026-05-05 18:18 | 33.43124 | -111.99343 | 1134 ft | 15 kts | 180° |
| 2026-05-05 18:18 | 33.43103 | -111.99403 | 1134 ft | 3 kts | 272° |
| 2026-05-05 18:18 | 33.43104 | -111.99452 | 1131 ft | 24 kts | 270° |
| 2026-05-05 18:19 | 33.43104 | -111.99970 | 1130 ft | 100 kts | 270° |
| 2026-05-05 18:19 | 33.43105 | -112.01052 | 1204 ft | 153 kts | 270° |
| 2026-05-05 18:19 | 33.43138 | -112.02110 | 1719 ft | 160 kts | 270° |
| 2026-05-05 18:19 | 33.43171 | -112.02971 | 2149 ft | 167 kts | 269° |
| 2026-05-05 18:20 | 33.43193 | -112.03454 | 2375 ft | 170 kts | 270° |
| 2026-05-05 18:20 | 33.43236 | -112.04193 | 2747 ft | 174 kts | 270° |
| 2026-05-05 18:20 | 33.43350 | -112.06038 | 3574 ft | 188 kts | 271° |
| 2026-05-05 18:20 | 33.43428 | -112.07657 | 4154 ft | 205 kts | 270° |
| 2026-05-05 18:21 | 33.43455 | -112.08307 | 4323 ft | 214 kts | 270° |
| 2026-05-05 18:21 | 33.43496 | -112.09167 | 4597 ft | 220 kts | 271° |
| 2026-05-05 18:21 | 33.43531 | -112.09936 | 4778 ft | 224 kts | 270° |